Time;durP1;ratioP1;P1;durP2;ratioP2;P2;SDS_P1;SDS_P2;PMS_P1;PMS_P2;Temp;Humidity;BMP_temperature;BMP_pressure;BME280_temperature;BME280_humidity;BME280_pressure;Samples;Min_cycle;Max_cycle;Signal;HPM_P1;HPM_P2
2021/03/30 00:01:21;;;;;;;43.95;26.40;;;;;;;11.38;96.61;101365.81;1775126;79;21051;-68
2021/03/30 00:03:47;;;;;;;41.18;25.12;;;;;;;11.43;96.50;101363.59;1776547;78;21453;-68
2021/03/30 00:06:13;;;;;;;36.68;23.80;;;;;;;11.58;96.25;101361.94;1777964;79;21156;-67
2021/03/30 00:08:39;;;;;;;39.98;24.37;;;;;;;11.62;95.78;101365.52;1773310;78;21031;-69
2021/03/30 00:11:05;;;;;;;36.05;23.65;;;;;;;11.71;95.21;101362.53;1774755;79;21376;-68
2021/03/30 00:13:30;;;;;;;40.95;25.50;;;;;;;11.69;94.90;101353.91;1768364;79;20915;-69
2021/03/30 00:15:57;;;;;;;43.17;25.95;;;;;;;11.63;94.98;101349.14;1774825;79;21154;-68
2021/03/30 00:18:22;;;;;;;43.42;25.20;;;;;;;11.66;95.22;101356.81;1773858;79;21224;-68
2021/03/30 00:20:48;;;;;;;39.78;24.20;;;;;;;11.74;94.79;101349.03;1772128;79;20970;-68
2021/03/30 00:23:14;;;;;;;43.68;25.50;;;;;;;11.68;94.89;101351.75;1771269;79;21009;-68
2021/03/30 00:25:40;;;;;;;42.43;24.52;;;;;;;11.74;94.62;101350.36;1771502;78;20945;-69
2021/03/30 00:28:05;;;;;;;41.35;24.98;;;;;;;11.82;94.30;101343.93;1775752;79;23428;-69
2021/03/30 00:30:31;;;;;;;40.10;24.77;;;;;;;11.89;93.86;101344.22;1775818;79;20923;-68
2021/03/30 00:32:57;;;;;;;39.13;24.70;;;;;;;11.96;93.56;101344.53;1771371;79;20971;-69
2021/03/30 00:35:23;;;;;;;40.67;24.47;;;;;;;12.02;93.29;101354.58;1773065;79;20994;-69
2021/03/30 00:37:49;;;;;;;37.42;23.30;;;;;;;12.01;93.02;101352.93;1771690;79;21080;-69
2021/03/30 00:40:16;;;;;;;37.67;23.40;;;;;;;12.10;92.65;101353.41;1779078;79;21221;-69
2021/03/30 00:42:42;;;;;;;41.60;24.85;;;;;;;11.97;92.70;101351.52;1777821;79;21615;-69
2021/03/30 00:45:09;;;;;;;42.58;24.52;;;;;;;11.93;93.05;101355.39;1779256;79;25815;-69
2021/03/30 00:47:36;;;;;;;39.35;23.50;;;;;;;11.80;93.67;101356.44;1776489;79;21188;-69
2021/03/30 00:50:03;;;;;;;37.40;22.32;;;;;;;11.83;93.68;101349.55;1770368;79;21618;-69
2021/03/30 00:52:29;;;;;;;37.65;23.65;;;;;;;11.74;93.97;101356.15;1773670;79;21146;-68
2021/03/30 00:54:55;;;;;;;35.78;22.22;;;;;;;11.72;94.04;101353.63;1770469;79;20950;-69
2021/03/30 00:57:20;;;;;;;37.78;23.32;;;;;;;11.75;94.06;101350.72;1776215;79;20947;-69
2021/03/30 00:59:46;;;;;;;39.88;24.40;;;;;;;11.73;94.11;101343.88;1775420;79;20919;-69
2021/03/30 01:02:13;;;;;;;42.93;25.20;;;;;;;11.76;94.03;101349.77;1728569;79;20945;-69
2021/03/30 01:04:39;;;;;;;37.93;24.20;;;;;;;11.75;94.05;101348.08;1775961;79;21225;-70
2021/03/30 01:07:06;;;;;;;38.98;24.57;;;;;;;11.75;94.21;101352.05;1771529;79;28302;-68
2021/03/30 01:09:56;;;;;;;39.18;23.73;;;;;;;11.86;93.83;101351.11;1775587;79;21276;-69
2021/03/30 01:12:53;;;;;;;41.20;24.25;;;;;;;11.79;94.07;101357.44;1772478;78;21563;-69
2021/03/30 01:15:31;;;;;;;39.67;24.35;;;;;;;11.85;93.80;101360.01;1769081;78;21193;-68
2021/03/30 01:18:14;;;;;;;36.45;22.87;;;;;;;11.89;93.76;101356.63;1776280;79;22509;-69
2021/03/30 01:21:21;;;;;;;40.00;24.72;;;;;;;11.93;93.59;101350.10;1772931;78;21194;-69
2021/03/30 01:24:01;;;;;;;41.58;23.92;;;;;;;11.99;93.32;101349.56;1770503;79;21205;-68
2021/03/30 01:29:24;;;;;;;38.83;24.12;;;;;;;12.23;92.12;101348.34;1853275;75;22652;-69
2021/03/30 01:32:01;;;;;;;37.65;24.10;;;;;;;12.19;91.94;101352.59;1828052;77;21023;-69
2021/03/30 01:34:27;;;;;;;37.20;24.82;;;;;;;12.24;91.75;101347.38;1828060;77;21161;-69
2021/03/30 01:36:55;;;;;;;35.10;23.00;;;;;;;12.27;91.56;101341.80;1814406;77;21168;-69
2021/03/30 01:39:21;;;;;;;39.55;23.50;;;;;;;12.37;91.25;101346.14;1828898;77;20989;-69
2021/03/30 01:41:49;;;;;;;41.20;22.83;;;;;;;12.38;90.91;101340.34;1828179;77;21128;-69
2021/03/30 01:44:18;;;;;;;41.55;24.92;;;;;;;12.34;90.77;101349.56;1826958;77;21499;-69
2021/03/30 01:46:44;;;;;;;38.15;23.55;;;;;;;12.30;90.56;101342.36;1807495;77;21350;-69
2021/03/30 01:49:10;;;;;;;37.88;23.30;;;;;;;12.31;90.60;101344.05;1832063;76;20896;-69
2021/03/30 01:51:37;;;;;;;39.38;23.83;;;;;;;12.28;90.55;101343.49;1769424;77;21016;-70
2021/03/30 01:54:03;;;;;;;36.07;22.70;;;;;;;12.23;90.86;101338.61;1825471;77;21185;-69
2021/03/30 01:56:30;;;;;;;38.10;24.25;;;;;;;12.29;90.75;101335.41;1793405;77;21747;-69
2021/03/30 01:58:57;;;;;;;38.15;24.50;;;;;;;12.29;90.80;101337.20;1826022;77;21463;-69
2021/03/30 02:01:23;;;;;;;38.70;23.30;;;;;;;12.34;90.54;101342.94;1832841;77;21195;-69
2021/03/30 02:03:48;;;;;;;38.78;23.80;;;;;;;12.34;90.30;101325.22;1830276;77;25576;-68
2021/03/30 02:06:14;;;;;;;40.83;24.45;;;;;;;12.30;90.48;101322.99;1824241;77;21466;-68
2021/03/30 02:08:40;;;;;;;37.90;23.75;;;;;;;12.38;90.14;101323.12;1830105;77;21894;-68
2021/03/30 02:11:06;;;;;;;35.85;23.35;;;;;;;12.45;89.94;101321.61;1829953;77;21679;-68
2021/03/30 02:16:17;;;;;;;37.48;22.45;;;;;;;12.43;89.57;101326.68;1826727;77;21215;-68
2021/03/30 02:18:49;;;;;;;40.35;24.15;;;;;;;12.27;89.86;101335.19;1830404;77;21207;-68
2021/03/30 02:21:23;;;;;;;44.88;24.65;;;;;;;12.15;90.66;101333.14;1827358;77;21210;-69
2021/03/30 02:23:49;;;;;;;41.33;24.72;;;;;;;12.02;91.25;101331.61;1832658;77;22088;-69
2021/03/30 02:26:16;;;;;;;37.35;25.00;;;;;;;11.93;92.05;101324.48;1827543;77;20993;-68
2021/03/30 02:28:51;;;;;;;45.08;26.27;;;;;;;11.75;92.81;101324.26;1833627;77;21202;-68
2021/03/30 02:31:20;;;;;;;40.78;24.47;;;;;;;11.88;92.99;101332.44;1830671;77;21168;-69
2021/03/30 02:33:48;;;;;;;41.18;25.35;;;;;;;11.96;92.22;101329.51;1832931;77;21210;-69
2021/03/30 02:36:14;;;;;;;43.30;25.25;;;;;;;11.81;92.92;101329.02;1835233;77;22214;-69
2021/03/30 02:38:40;;;;;;;44.33;26.97;;;;;;;11.82;92.95;101327.19;1832212;77;21417;-69
2021/03/30 02:41:06;;;;;;;38.02;23.62;;;;;;;11.90;92.47;101326.52;1834535;77;21207;-69
2021/03/30 02:43:32;;;;;;;45.03;25.57;;;;;;;11.84;92.76;101327.42;1832895;77;21176;-69
2021/03/30 02:45:57;;;;;;;44.85;26.20;;;;;;;11.68;93.56;101331.05;1803464;77;21494;-69
2021/03/30 02:48:23;;;;;;;45.63;26.27;;;;;;;11.67;93.65;101332.05;1830798;77;21756;-69
2021/03/30 02:50:49;;;;;;;38.60;24.15;;;;;;;11.79;93.70;101329.64;1833884;77;20890;-69
2021/03/30 02:53:15;;;;;;;43.35;26.20;;;;;;;11.76;93.36;101330.38;1834668;77;21192;-69
2021/03/30 02:55:41;;;;;;;40.05;25.50;;;;;;;11.68;93.77;101324.44;1833130;77;21395;-69
2021/03/30 02:58:08;;;;;;;41.68;23.67;;;;;;;11.77;93.37;101330.24;1833273;77;21177;-69
2021/03/30 03:00:35;;;;;;;39.35;26.17;;;;;;;11.76;93.38;101336.53;1828604;77;22278;-69
2021/03/30 03:03:03;;;;;;;43.75;25.90;;;;;;;11.66;93.78;101338.30;1831746;77;21152;-69
2021/03/30 03:05:29;;;;;;;41.68;25.25;;;;;;;11.82;93.30;101329.38;1832946;77;21200;-69
2021/03/30 03:07:55;;;;;;;41.45;25.48;;;;;;;11.88;92.89;101333.27;1829784;77;21773;-68
2021/03/30 03:10:20;;;;;;;42.78;25.45;;;;;;;11.83;92.94;101332.35;1830821;77;21047;-68
2021/03/30 03:12:47;;;;;;;41.35;24.70;;;;;;;11.81;92.77;101339.60;1813628;77;21967;-68
2021/03/30 03:15:14;;;;;;;41.15;24.90;;;;;;;11.74;93.30;101337.63;1835124;77;21171;-69
2021/03/30 03:17:41;;;;;;;45.45;26.80;;;;;;;11.78;93.06;101341.69;1834686;76;21203;-69
2021/03/30 03:20:09;;;;;;;38.30;24.77;;;;;;;11.69;93.62;101336.70;1833233;76;21224;-69
2021/03/30 03:22:35;;;;;;;39.65;24.50;;;;;;;11.77;93.10;101328.09;1842290;76;27597;-69
2021/03/30 03:25:01;;;;;;;45.98;25.65;;;;;;;11.78;93.06;101331.93;1836266;76;21981;-68
2021/03/30 03:27:28;;;;;;;46.42;26.55;;;;;;;11.54;94.24;101334.07;1833275;77;27116;-68
2021/03/30 03:29:54;;;;;;;45.52;27.25;;;;;;;11.56;94.36;101327.69;1837059;76;21228;-68
2021/03/30 03:32:25;;;;;;;42.15;25.40;;;;;;;11.62;94.18;101326.30;1827954;76;21163;-68
2021/03/30 03:34:50;;;;;;;42.23;25.45;;;;;;;11.61;94.06;101333.90;1827766;77;21472;-68
2021/03/30 03:37:16;;;;;;;46.88;27.07;;;;;;;11.50;94.56;101333.02;1826987;77;22176;-68
2021/03/30 03:39:42;;;;;;;39.00;24.57;;;;;;;11.65;94.55;101333.96;1826085;77;20959;-68
2021/03/30 03:42:08;;;;;;;44.95;26.45;;;;;;;11.67;94.20;101336.01;1823787;77;20930;-68
2021/03/30 03:44:33;;;;;;;41.20;25.88;;;;;;;11.73;93.90;101328.86;1830516;77;20888;-69
2021/03/30 03:46:59;;;;;;;45.15;25.52;;;;;;;11.84;93.38;101331.39;1828540;77;20957;-69
2021/03/30 03:49:25;;;;;;;43.63;25.97;;;;;;;11.71;93.49;101326.81;1827913;77;21422;-69
2021/03/30 03:52:08;;;;;;;45.28;25.05;;;;;;;11.82;93.30;101328.05;1827164;77;21179;-69
2021/03/30 03:54:34;;;;;;;44.23;26.23;;;;;;;11.82;93.15;101326.73;1826616;77;21232;-70
2021/03/30 03:57:21;;;;;;;42.60;25.62;;;;;;;11.75;93.21;101328.23;1825227;77;21215;-70
2021/03/30 03:59:47;;;;;;;;;;;;;;;11.80;92.95;101323.36;1829297;77;21137;-69
2021/03/30 04:02:32;;;;;;;38.92;23.07;;;;;;;11.83;92.41;101327.06;1833288;77;21211;-69
2021/03/30 04:05:08;;;;;;;42.45;24.92;;;;;;;11.82;92.47;101333.34;1827063;77;21183;-69
2021/03/30 04:07:54;;;;;;;44.10;25.15;;;;;;;11.68;93.21;101331.91;1826413;77;21650;-69
2021/03/30 04:10:22;;;;;;;39.33;24.20;;;;;;;11.72;93.24;101340.41;1829559;76;21549;-69
2021/03/30 04:12:48;;;;;;;41.45;24.40;;;;;;;11.56;93.74;101338.27;1827987;77;21626;-69
2021/03/30 04:15:21;;;;;;;40.90;24.50;;;;;;;11.42;94.61;101328.87;1827633;77;22237;-69
2021/03/30 04:17:49;;;;;;;41.70;24.40;;;;;;;11.55;94.19;101333.11;1829919;77;21169;-69
2021/03/30 04:20:16;;;;;;;46.48;25.17;;;;;;;11.39;95.08;101336.22;1829518;77;21370;-69
2021/03/30 04:22:54;;;;;;;45.03;25.97;;;;;;;11.37;95.18;101339.00;1828998;77;21597;-69
2021/03/30 04:25:17;;;;;;;47.93;27.37;;;;;;;11.26;95.95;101335.13;1827952;77;21511;-69
2021/03/30 04:27:43;;;;;;;45.00;25.40;;;;;;;11.24;96.33;101333.11;1828044;77;21595;-69
2021/03/30 04:30:10;;;;;;;43.38;25.25;;;;;;;11.34;96.02;101343.23;1826509;77;21664;-69
2021/03/30 04:32:36;;;;;;;41.73;25.37;;;;;;;11.37;95.60;101342.96;1835082;77;22285;-69
2021/03/30 04:35:02;;;;;;;41.88;24.23;;;;;;;11.33;95.96;101350.83;1828916;77;21324;-69
2021/03/30 04:37:28;;;;;;;42.43;24.52;;;;;;;11.30;96.32;101350.59;1825203;77;21167;-69
2021/03/30 04:39:54;;;;;;;41.98;23.70;;;;;;;11.38;96.49;101349.11;1829502;77;22005;-70
2021/03/30 04:42:19;;;;;;;40.08;23.85;;;;;;;11.14;96.62;101324.64;1826941;77;21040;-69
2021/03/30 04:44:45;;;;;;;42.90;25.05;;;;;;;11.22;97.46;101351.74;1832482;77;25742;-70
2021/03/30 04:47:11;;;;;;;45.00;24.77;;;;;;;11.30;97.54;101349.27;1826689;77;22381;-69
2021/03/30 04:49:37;;;;;;;47.80;26.85;;;;;;;11.34;97.27;101359.09;1828337;77;20988;-69
2021/03/30 04:52:04;;;;;;;42.78;25.17;;;;;;;11.36;97.68;101354.53;1824390;77;21250;-69
2021/03/30 04:54:30;;;;;;;49.90;26.60;;;;;;;11.36;98.10;101359.83;1824487;77;26526;-69
2021/03/30 04:56:56;;;;;;;43.68;25.95;;;;;;;11.36;98.55;101363.79;1826088;77;22523;-69
2021/03/30 04:59:22;;;;;;;47.10;26.23;;;;;;;11.37;98.64;101361.48;1827627;77;21683;-69
2021/03/30 05:01:48;;;;;;;43.58;25.40;;;;;;;11.37;98.85;101359.33;1827514;77;21046;-69
2021/03/30 05:04:14;;;;;;;46.13;26.23;;;;;;;11.52;98.96;101359.83;1825376;77;21824;-69
2021/03/30 05:06:39;;;;;;;44.53;26.05;;;;;;;11.49;98.69;101359.10;1825711;77;21648;-69
2021/03/30 05:09:06;;;;;;;39.27;23.60;;;;;;;11.45;99.00;101360.36;1828395;77;21002;-69
2021/03/30 05:11:32;;;;;;;43.20;25.55;;;;;;;11.49;98.93;101359.10;1831564;77;21297;-69
2021/03/30 05:13:57;;;;;;;41.08;24.45;;;;;;;11.39;99.76;101356.06;1827776;77;20980;-69
2021/03/30 05:16:23;;;;;;;44.85;25.70;;;;;;;11.52;99.29;101362.47;1824750;77;21378;-69
2021/03/30 05:18:49;;;;;;;44.48;26.07;;;;;;;11.48;99.77;101366.70;1826431;77;28114;-69
2021/03/30 05:21:15;;;;;;;45.65;26.37;;;;;;;11.26;100.00;101366.39;1827974;76;21462;-69
2021/03/30 05:23:40;;;;;;;46.75;27.32;;;;;;;11.32;100.00;101365.01;1830711;76;21383;-69
2021/03/30 05:26:06;;;;;;;45.67;27.05;;;;;;;11.37;100.00;101373.38;1830594;76;20946;-69
2021/03/30 05:28:32;;;;;;;42.93;27.27;;;;;;;11.30;100.00;101364.31;1831556;76;21203;-70
2021/03/30 05:30:58;;;;;;;51.00;28.52;;;;;;;11.40;100.00;101355.92;1833447;77;26658;-68
2021/03/30 05:33:24;;;;;;;48.42;28.40;;;;;;;11.56;100.00;101359.89;1832496;77;25356;-68
2021/03/30 05:35:49;;;;;;;48.98;27.10;;;;;;;11.50;100.00;101352.03;1835176;77;22496;-68
2021/03/30 05:38:15;;;;;;;43.45;26.17;;;;;;;11.52;100.00;101362.47;1832035;77;20931;-68
2021/03/30 05:40:41;;;;;;;43.13;25.75;;;;;;;11.44;100.00;101356.02;1831984;77;21179;-69
2021/03/30 05:43:08;;;;;;;43.25;26.37;;;;;;;11.45;100.00;101359.03;1828799;77;21034;-69
2021/03/30 05:45:34;;;;;;;41.30;26.35;;;;;;;11.50;100.00;101360.78;1831995;77;21242;-69
2021/03/30 05:47:59;;;;;;;50.38;28.80;;;;;;;11.54;100.00;101361.84;1838346;77;20937;-68
2021/03/30 05:50:29;;;;;;;47.98;26.95;;;;;;;11.67;100.00;101361.15;1830618;77;20910;-68
2021/03/30 05:53:05;;;;;;;;;;;;;;;11.58;100.00;101362.77;1835568;77;21237;-68
2021/03/30 05:55:35;;;;;;;42.50;27.77;;;;;;;11.60;100.00;101365.28;1831621;77;20564;-69
2021/03/30 05:58:02;;;;;;;46.73;27.37;;;;;;;11.70;100.00;101368.82;1831382;77;21195;-69
2021/03/30 06:00:40;;;;;;;49.10;28.07;;;;;;;11.73;100.00;101371.20;1833957;77;21660;-69
2021/03/30 06:03:13;;;;;;;41.68;26.23;;;;;;;11.59;100.00;101363.13;1832338;77;21861;-69
2021/03/30 06:05:39;;;;;;;39.45;25.88;;;;;;;11.79;99.84;101360.08;1833720;77;21215;-69
2021/03/30 06:08:05;;;;;;;41.53;26.12;;;;;;;11.84;99.77;101365.80;1806204;77;20911;-68
2021/03/30 06:10:32;;;;;;;46.45;28.52;;;;;;;11.85;99.79;101358.69;1831762;77;21105;-68
2021/03/30 06:12:59;;;;;;;43.52;27.48;;;;;;;11.85;100.00;101355.58;1831515;77;21893;-69
2021/03/30 06:15:31;;;;;;;43.75;27.25;;;;;;;11.72;100.00;101361.58;1833127;77;21151;-68
2021/03/30 06:17:58;;;;;;;47.33;29.63;;;;;;;11.91;100.00;101357.32;1829852;77;21625;-69
2021/03/30 06:20:34;;;;;;;48.85;27.58;;;;;;;12.16;99.11;101356.83;1833173;76;21624;-70
2021/03/30 06:23:06;;;;;;;43.73;26.77;;;;;;;12.10;98.86;101360.03;1831057;76;21317;-67
2021/03/30 06:25:47;;;;;;;41.68;27.48;;;;;;;12.15;98.97;101370.20;1833805;77;21205;-69
2021/03/30 06:28:24;;;;;;;37.58;25.40;;;;;;;12.29;98.44;101370.30;1830781;77;21219;-69
2021/03/30 06:31:15;;;;;;;44.48;27.25;;;;;;;12.28;97.89;101370.80;1837234;77;21225;-69
2021/03/30 06:33:58;;;;;;;40.75;25.27;;;;;;;12.17;98.38;101373.08;1818264;77;21218;-70
2021/03/30 06:36:32;;;;;;;41.37;26.60;;;;;;;12.10;99.16;101375.91;1832948;77;21082;-68
2021/03/30 06:39:10;;;;;;;44.45;26.97;;;;;;;12.13;98.98;101374.31;1789153;77;21196;-69
2021/03/30 06:44:42;;;;;;;43.80;26.02;;;;;;;12.09;99.72;101374.72;1814582;77;21739;-69
2021/03/30 06:47:14;;;;;;;47.13;28.32;;;;;;;12.10;99.99;101379.06;1804402;77;21545;-68
2021/03/30 06:50:00;;;;;;;42.95;27.45;;;;;;;12.11;100.00;101388.19;1832811;77;21180;-68
2021/03/30 06:52:33;;;;;;;41.98;26.42;;;;;;;12.18;100.00;101389.80;1832607;77;21206;-69
2021/03/30 06:55:09;;;;;;;46.30;29.60;;;;;;;12.19;99.96;101393.64;1829923;77;21192;-70
2021/03/30 06:57:51;;;;;;;45.15;27.85;;;;;;;12.22;100.00;101392.54;1832743;77;22197;-69
2021/03/30 07:00:30;;;;;;;44.35;27.60;;;;;;;12.38;99.50;101394.65;1808272;77;21068;-71
2021/03/30 07:02:59;;;;;;;37.23;25.37;;;;;;;12.53;98.70;101395.09;1800557;77;21268;-68
2021/03/30 07:05:37;;;;;;;46.40;28.38;;;;;;;12.40;99.05;101398.02;1835681;77;21216;-69
2021/03/30 07:08:18;;;;;;;48.10;27.17;;;;;;;12.38;99.43;101395.50;1781255;77;21220;-68
2021/03/30 07:10:47;;;;;;;39.27;25.75;;;;;;;12.57;98.78;101385.91;1808269;77;23544;-68
2021/03/30 07:13:16;;;;;;;41.55;26.27;;;;;;;12.73;98.02;101386.67;1831900;77;21184;-69
2021/03/30 07:15:42;;;;;;;43.95;27.77;;;;;;;12.72;97.91;101387.16;1832325;77;21212;-69
2021/03/30 07:18:27;;;;;;;42.60;26.40;;;;;;;12.76;98.08;101389.04;1830964;77;21227;-69
2021/03/30 07:21:04;;;;;;;43.25;26.00;;;;;;;12.84;97.83;101393.14;1831696;77;21199;-68
2021/03/30 07:23:32;;;;;;;43.52;26.70;;;;;;;12.97;97.24;101393.34;1832189;76;21234;-69
2021/03/30 07:26:18;;;;;;;39.35;25.65;;;;;;;12.94;96.79;101395.78;1837121;76;21191;-68
2021/03/30 07:28:46;;;;;;;42.10;24.10;;;;;;;13.02;96.35;101400.38;1831115;77;21175;-69
2021/03/30 07:31:17;;;;;;;41.30;26.48;;;;;;;12.95;96.32;101396.63;1828254;76;22492;-69
2021/03/30 07:34:02;;;;;;;40.10;24.52;;;;;;;13.06;96.08;101397.30;1829939;76;21199;-69
2021/03/30 07:36:35;;;;;;;40.88;24.43;;;;;;;13.04;95.62;101403.75;1830214;77;22084;-68
2021/03/30 07:39:01;;;;;;;47.62;26.87;;;;;;;12.99;95.57;101398.00;1827700;77;21240;-69
2021/03/30 07:41:27;;;;;;;38.88;23.32;;;;;;;13.32;94.94;101402.02;1827476;77;21128;-68
2021/03/30 07:43:53;;;;;;;41.90;25.95;;;;;;;13.24;94.24;101401.41;1828049;77;21223;-69
2021/03/30 07:46:20;;;;;;;41.85;24.43;;;;;;;13.24;93.99;101415.99;1775014;77;21029;-68
2021/03/30 07:48:46;;;;;;;41.53;26.02;;;;;;;13.31;94.45;101402.16;1827792;77;21547;-69
2021/03/30 07:51:13;;;;;;;37.15;23.87;;;;;;;13.25;94.94;101402.23;1828242;77;21074;-68
2021/03/30 07:53:50;;;;;;;;;;;;;;;13.38;94.12;101417.89;1829826;76;21181;-69
2021/03/30 07:56:29;;;;;;;44.33;25.30;;;;;;;13.45;94.46;101412.34;1828368;77;20306;-69
2021/03/30 07:58:57;;;;;;;42.73;24.87;;;;;;;13.65;93.69;101417.92;1824882;76;21184;-69
2021/03/30 08:01:30;;;;;;;38.95;22.32;;;;;;;13.60;91.79;101413.55;1829359;77;21587;-69
2021/03/30 08:03:56;;;;;;;43.90;24.67;;;;;;;13.44;90.60;101409.36;1827585;77;21132;-71
2021/03/30 08:06:28;;;;;;;39.35;22.05;;;;;;;13.78;90.42;101406.14;1829189;77;21207;-69
2021/03/30 08:09:00;;;;;;;40.70;23.27;;;;;;;13.86;88.89;101409.39;1830330;77;21205;-69
2021/03/30 08:11:48;;;;;;;44.08;24.18;;;;;;;13.86;88.00;101422.67;1827840;76;21220;-69
2021/03/30 08:14:28;;;;;;;41.35;22.60;;;;;;;13.71;88.06;101417.02;1827529;77;21892;-68
2021/03/30 08:16:57;;;;;;;39.23;22.93;;;;;;;13.61;86.93;101408.60;1829340;77;21217;-70
2021/03/30 08:19:27;;;;;;;39.05;22.90;;;;;;;13.65;87.74;101429.87;1833094;76;21590;-68
2021/03/30 08:21:59;;;;;;;37.08;21.90;;;;;;;13.65;87.59;101433.03;1833077;77;21999;-69
2021/03/30 08:24:28;;;;;;;41.63;23.00;;;;;;;13.60;87.37;101428.66;1829905;76;21215;-69
2021/03/30 08:26:54;;;;;;;38.05;23.25;;;;;;;13.78;87.05;101421.61;1828893;76;22386;-69
2021/03/30 08:29:41;;;;;;;41.15;23.80;;;;;;;13.93;86.69;101420.61;1826780;77;21211;-69
2021/03/30 08:32:08;;;;;;;44.88;25.15;;;;;;;13.96;86.67;101424.30;1760742;79;21171;-68
2021/03/30 08:34:41;;;;;;;44.48;25.68;;;;;;;13.81;86.70;101427.95;1740813;79;21586;-69
2021/03/30 08:37:14;;;;;;;47.98;26.80;;;;;;;13.86;86.67;101430.17;1762138;79;21263;-68
2021/03/30 08:39:40;;;;;;;44.25;27.17;;;;;;;13.87;86.39;101427.02;1768015;79;21160;-69
2021/03/30 08:42:12;;;;;;;41.70;27.15;;;;;;;14.07;86.02;101431.24;1786261;79;21191;-69
2021/03/30 08:45:03;;;;;;;46.58;27.37;;;;;;;14.12;85.99;101437.44;1776683;79;22540;-69
2021/03/30 08:47:42;;;;;;;43.45;26.45;;;;;;;14.02;85.31;101438.00;1777273;79;21160;-70
2021/03/30 08:50:27;;;;;;;43.33;27.07;;;;;;;14.07;85.06;101439.21;1763190;79;21205;-69
2021/03/30 08:52:55;;;;;;;47.58;28.60;;;;;;;14.16;85.33;101432.19;1763600;79;21238;-70
2021/03/30 08:55:30;;;;;;;41.80;24.15;;;;;;;14.41;84.27;101436.45;1788971;77;21217;-69
2021/03/30 08:57:59;;;;;;;42.62;27.13;;;;;;;14.44;83.46;101430.84;1797021;77;21150;-69
2021/03/30 09:00:26;;;;;;;43.13;26.42;;;;;;;14.45;83.71;101430.69;1778357;77;21171;-69
2021/03/30 09:03:05;;;;;;;47.90;28.37;;;;;;;14.47;83.36;101434.53;1791284;77;21206;-69
2021/03/30 09:05:41;;;;;;;50.30;29.23;;;;;;;14.49;83.38;101433.87;1784365;77;21453;-69
2021/03/30 09:08:08;;;;;;;45.23;29.57;;;;;;;14.65;83.60;101432.75;1788580;77;21692;-68
2021/03/30 09:10:34;;;;;;;46.33;29.45;;;;;;;14.59;83.70;101428.01;1794064;77;21250;-68
2021/03/30 09:13:15;;;;;;;45.48;27.52;;;;;;;14.56;82.96;101432.30;1794330;77;21596;-69
2021/03/30 09:15:43;;;;;;;49.25;27.75;;;;;;;14.42;82.84;101428.80;1786214;77;22281;-70
2021/03/30 09:18:09;;;;;;;45.48;29.02;;;;;;;14.44;82.48;101428.18;1795532;77;21531;-69
2021/03/30 09:20:37;;;;;;;46.27;29.33;;;;;;;14.45;82.43;101425.38;1791760;77;21560;-69
2021/03/30 09:23:18;;;;;;;40.67;27.17;;;;;;;14.40;82.55;101434.27;1793303;77;21194;-70
2021/03/30 09:25:51;;;;;;;44.88;26.62;;;;;;;14.46;82.07;101430.19;1754957;77;21253;-69
2021/03/30 09:28:20;;;;;;;41.45;25.68;;;;;;;14.65;81.49;101427.44;1781100;77;21197;-69
2021/03/30 09:30:46;;;;;;;34.95;22.75;;;;;;;14.82;81.31;101427.57;1756067;77;21203;-68
2021/03/30 09:33:14;;;;;;;39.60;23.42;;;;;;;14.86;81.38;101432.94;1778894;77;21220;-70
2021/03/30 09:35:40;;;;;;;38.95;24.27;;;;;;;14.89;80.94;101439.28;1798254;77;21100;-69
2021/03/30 09:38:06;;;;;;;38.78;23.92;;;;;;;14.80;81.16;101441.02;1799227;77;21174;-69
2021/03/30 09:40:35;;;;;;;43.25;25.50;;;;;;;14.69;81.55;101431.44;1788563;77;20897;-69
2021/03/30 09:43:00;;;;;;;38.28;23.75;;;;;;;14.82;81.63;101435.55;1794324;77;21218;-69
2021/03/30 09:45:32;;;;;;;42.83;23.80;;;;;;;14.87;80.99;101436.77;1745722;77;20977;-68
2021/03/30 09:48:03;;;;;;;34.63;22.70;;;;;;;14.90;81.05;101430.33;1786464;77;21178;-68
2021/03/30 09:50:35;;;;;;;38.75;23.27;;;;;;;14.90;80.81;101435.64;1789128;77;21624;-69
2021/03/30 09:53:10;;;;;;;37.17;23.67;;;;;;;14.55;81.43;101435.43;1767417;77;21398;-68
2021/03/30 09:55:41;;;;;;;42.70;23.20;;;;;;;14.56;82.13;101428.31;1800574;77;21211;-69
2021/03/30 09:58:10;;;;;;;35.65;22.65;;;;;;;14.55;82.25;101439.92;1788263;77;21405;-70
2021/03/30 10:00:39;;;;;;;36.98;23.67;;;;;;;14.45;82.22;101441.80;1795514;77;21234;-69
2021/03/30 10:03:06;;;;;;;37.20;23.10;;;;;;;14.52;82.28;101436.23;1803611;77;21156;-70
2021/03/30 10:05:36;;;;;;;40.90;25.17;;;;;;;14.52;82.47;101443.70;1782804;77;21602;-70
2021/03/30 10:08:05;;;;;;;40.12;25.88;;;;;;;14.50;82.84;101446.19;1750049;79;21848;-69
2021/03/30 10:10:50;;;;;;;40.15;27.05;;;;;;;14.29;83.72;101434.48;1707228;80;21216;-69
2021/03/30 10:13:37;;;;;;;41.45;28.90;;;;;;;14.21;84.58;101445.86;1724476;79;21234;-69
2021/03/30 10:16:09;;;;;;;42.30;26.20;;;;;;;14.19;84.97;101433.22;1768779;79;21228;-70
2021/03/30 10:18:36;;;;;;;42.85;28.02;;;;;;;14.30;84.64;101429.02;1753171;79;21253;-69
2021/03/30 10:21:12;;;;;;;39.27;27.33;;;;;;;14.09;85.73;101436.41;1762480;79;21276;-69
2021/03/30 10:23:44;;;;;;;41.18;26.77;;;;;;;14.21;85.29;101435.23;1749884;79;21568;-69
2021/03/30 10:26:19;;;;;;;33.98;24.23;;;;;;;14.31;84.97;101437.34;1764061;79;21248;-69
2021/03/30 10:28:56;;;;;;;37.35;24.15;;;;;;;14.22;85.45;101442.22;1732883;80;21233;-70
2021/03/30 10:31:41;;;;;;;36.17;25.57;;;;;;;14.34;85.19;101442.36;1757012;79;21217;-69
2021/03/30 10:34:01;;;;;;;35.50;23.83;;;;;;;14.20;85.71;101446.86;1766933;79;21216;-71
2021/03/30 10:36:27;;;;;;;35.35;24.43;;;;;;;14.18;86.01;101435.05;1770981;79;21082;-70
2021/03/30 10:39:07;;;;;;;29.05;20.62;;;;;;;14.50;85.01;101436.89;1765134;79;20923;-70
2021/03/30 10:41:38;;;;;;;31.50;21.87;;;;;;;14.45;84.39;101431.16;1763451;79;21185;-70
2021/03/30 10:44:05;;;;;;;32.53;21.73;;;;;;;14.63;84.28;101437.36;1772131;79;21253;-71
2021/03/30 10:46:43;;;;;;;28.77;20.25;;;;;;;14.66;83.88;101433.08;1770124;79;21221;-69
2021/03/30 10:49:09;;;;;;;25.77;19.12;;;;;;;14.62;84.22;101434.86;1774526;79;21191;-70
2021/03/30 10:51:38;;;;;;;26.25;17.75;;;;;;;14.58;83.72;101434.30;1770841;79;20959;-70
2021/03/30 10:54:06;;;;;;;27.07;16.93;;;;;;;14.59;83.75;101422.69;1764073;79;21484;-71
2021/03/30 10:56:32;;;;;;;20.32;14.95;;;;;;;14.65;82.89;101433.23;1774953;79;21223;-69
2021/03/30 10:58:58;;;;;;;26.02;17.07;;;;;;;14.64;82.02;101425.75;1766307;79;21422;-71
2021/03/30 11:01:24;;;;;;;21.45;15.13;;;;;;;14.48;82.91;101422.89;1766007;79;20994;-71
2021/03/30 11:03:50;;;;;;;20.15;14.73;;;;;;;14.49;82.45;101427.23;1765866;79;21471;-70
2021/03/30 11:06:16;;;;;;;18.85;13.00;;;;;;;14.57;81.97;101445.91;1766149;79;21205;-71
2021/03/30 11:08:42;;;;;;;19.98;13.20;;;;;;;14.17;82.97;101440.01;1771807;79;20947;-70
2021/03/30 11:11:08;;;;;;;21.07;13.40;;;;;;;14.32;82.81;101439.50;1769383;79;21251;-68
2021/03/30 11:13:34;;;;;;;20.70;13.62;;;;;;;14.43;82.50;101436.63;1705522;82;21052;-72
2021/03/30 11:16:00;;;;;;;17.40;13.10;;;;;;;14.56;82.08;101433.63;1763633;79;21023;-71
2021/03/30 11:18:25;;;;;;;18.12;12.75;;;;;;;14.47;82.15;101442.50;1765554;79;20941;-70
2021/03/30 11:20:51;;;;;;;23.27;13.32;;;;;;;14.56;81.65;101437.61;1767293;79;21022;-69
2021/03/30 11:23:17;;;;;;;18.65;12.10;;;;;;;14.58;81.83;101426.33;1762930;79;21142;-71
2021/03/30 11:25:43;;;;;;;19.48;10.70;;;;;;;14.69;80.93;101431.44;1766318;79;21242;-70
2021/03/30 11:28:11;;;;;;;15.88;10.82;;;;;;;14.76;80.44;101428.17;1767871;79;21208;-69
2021/03/30 11:30:54;;;;;;;17.35;9.60;;;;;;;14.60;79.91;101450.10;1763537;79;21651;-69